Página principal
METAR-TAF:

METAR-TAF

Aeroportos :

Comiso, Itália

latitude: 36-59-30N, longitude: 14-36-25E, altura: 190 m

Observação actual do tempo

O boletim foi feito há 1 hora e 0 minutos, às 11:50 UTC
Vento 10 kt de oes-sudoeste, variando entre sul e oeste
Temperatura 33°C
Humidade 23%
Pressão 1015 hPa
Visibilidade 10 km ou mais
sem nuvens abaixo de 1500 metros e sem cumulonimbus

METAR: LICB 201150Z 24010KT 190V270 CAVOK 33/09 Q1015

Hora: 14:50 (12:50 UTC)

Previsão

O boletim foi feito há 1 hora e 50 minutos, às 11:00 UTC
Previsão válida de 20 às 12 UTC a 20 às 21 UTC
Vento 12 kt de oes-sudoeste
Visibilidade 10 km ou mais
sem nuvens abaixo de 1500 metros e sem cumulonimbus
Tornando-se
de 20 às 18 UTC a 20 às 20 UTC
Vento 4 kt com direcção variável

TAF: LICB 201100Z 2012/2021 25012KT CAVOK BECMG 2018/2020 VRB04KT

Observações e previsões do tempo de mais de 4000 aeroportos (mensagens METAR e TAF).

As estações disponíveis são os pontos amarelos e vermelhos sobre o mapa.

Mova o rato sobre o mapa para ver o nome da estação.

Depois clique no ponto para visualizar as observações e previsões meteorológicas.

Para alterar o mapa : clique nos botões verdes com uma cruz preta para aumentar o zoom; no botão verde com uma pitada de zoom; ou nas setas verdes para mapas adjacentes.


METAR-TAF: